Time,TemperatureF,DewpointF,PressureIn,WindDirection,WindDirectionDegrees,WindSpeedMPH,WindSpeedGustMPH,Humidity,HourlyPrecipIn,Conditions,Clouds,dailyrainin,SolarRadiationWatts/m^2,SoftwareType,DateUTC
2013-03-06 00:00:00,38.2,34.0,30.13,North,360,2.0,5.0,84,0.00,,,0.00,0,weatherlink.com 1.10,2013-03-06 05:00:00,
2013-03-06 00:15:00,37.8,33.0,30.12,NNE,29,3.0,6.0,84,0.00,,,0.00,0,weatherlink.com 1.10,2013-03-06 05:15:00,
2013-03-06 00:30:00,37.6,34.0,30.12,ENE,60,2.0,6.0,86,0.00,,,0.00,0,weatherlink.com 1.10,2013-03-06 05:30:00,
2013-03-06 00:45:00,37.9,34.0,30.12,NE,44,7.0,10.0,86,0.00,,,0.00,0,weatherlink.com 1.10,2013-03-06 05:45:00,
2013-03-06 01:00:00,37.8,34.0,30.12,NE,46,5.0,11.0,87,0.00,,,0.00,0,weatherlink.com 1.10,2013-03-06 06:00:00,
2013-03-06 01:15:00,37.5,34.0,30.12,ENE,69,1.0,8.0,88,0.00,,,0.00,0,weatherlink.com 1.10,2013-03-06 06:15:00,
2013-03-06 01:30:00,37.8,35.0,30.11,North,9,1.0,11.0,89,0.00,,,0.00,0,weatherlink.com 1.10,2013-03-06 06:30:00,
2013-03-06 01:45:00,37.8,35.0,30.12,ENE,74,5.0,10.0,89,0.00,,,0.00,0,weatherlink.com 1.10,2013-03-06 06:45:00,
2013-03-06 02:00:00,37.9,35.0,30.11,NE,38,9.0,9.0,89,0.00,,,0.00,0,weatherlink.com 1.10,2013-03-06 07:00:00,
2013-03-06 02:15:00,38.0,35.0,30.11,NE,50,4.0,9.0,90,0.00,,,0.00,0,weatherlink.com 1.10,2013-03-06 07:15:00,
2013-03-06 02:30:00,38.0,35.0,30.11,ENE,66,1.0,10.0,90,0.00,,,0.00,0,weatherlink.com 1.10,2013-03-06 07:30:00,
2013-03-06 02:45:00,38.0,36.0,30.11,NNW,343,4.0,8.0,91,0.00,,,0.00,0,weatherlink.com 1.10,2013-03-06 07:45:00,
2013-03-06 03:00:00,38.3,36.0,30.11,NE,34,3.0,9.0,90,0.00,,,0.00,0,weatherlink.com 1.10,2013-03-06 08:00:00,
2013-03-06 03:16:00,38.4,36.0,30.12,ENE,61,4.0,10.0,89,0.00,,,0.00,0,weatherlink.com 1.10,2013-03-06 08:16:00,
2013-03-06 03:31:00,38.7,36.0,30.12,ENE,68,4.0,9.0,89,0.00,,,0.00,0,weatherlink.com 1.10,2013-03-06 08:31:00,
2013-03-06 03:46:00,38.9,36.0,30.13,ENE,63,9.0,10.0,89,0.00,,,0.00,0,weatherlink.com 1.10,2013-03-06 08:46:00,
2013-03-06 04:01:00,39.1,36.0,30.13,East,93,11.0,11.0,88,0.00,,,0.00,0,weatherlink.com 1.10,2013-03-06 09:01:00,
2013-03-06 04:16:00,38.9,36.0,30.13,NE,41,0.0,14.0,90,0.00,,,0.00,0,weatherlink.com 1.10,2013-03-06 09:16:00,
2013-03-06 04:31:00,38.6,36.0,30.13,ESE,103,3.0,11.0,91,0.00,,,0.00,0,weatherlink.com 1.10,2013-03-06 09:31:00,
2013-03-06 04:46:00,38.6,36.0,30.13,East,86,6.0,16.0,91,0.01,,,0.01,0,weatherlink.com 1.10,2013-03-06 09:46:00,
2013-03-06 05:01:00,39.1,37.0,30.13,SE,143,5.0,17.0,90,0.01,,,0.01,0,weatherlink.com 1.10,2013-03-06 10:01:00,
2013-03-06 05:16:00,39.0,36.0,30.13,East,94,3.0,16.0,89,0.02,,,0.02,0,weatherlink.com 1.10,2013-03-06 10:16:00,
2013-03-06 05:31:00,39.1,36.0,30.13,NE,52,1.0,11.0,89,0.02,,,0.02,0,weatherlink.com 1.10,2013-03-06 10:31:00,
2013-03-06 05:46:00,39.2,36.0,30.12,East,92,10.0,18.0,88,0.01,,,0.02,0,weatherlink.com 1.10,2013-03-06 10:46:00,
2013-03-06 06:01:00,39.3,36.0,30.12,East,81,10.0,14.0,88,0.01,,,0.02,0,weatherlink.com 1.10,2013-03-06 11:01:00,
2013-03-06 06:16:00,39.0,36.0,30.13,ESE,103,8.0,17.0,89,0.00,,,0.02,0,weatherlink.com 1.10,2013-03-06 11:16:00,
2013-03-06 06:31:00,38.6,36.0,30.13,East,80,11.0,26.0,90,0.01,,,0.03,7,weatherlink.com 1.10,2013-03-06 11:31:00,
2013-03-06 06:46:00,38.6,36.0,30.14,East,80,7.0,14.0,91,0.01,,,0.03,12,weatherlink.com 1.10,2013-03-06 11:46:00,
2013-03-06 07:01:00,39.6,36.0,30.14,East,84,6.0,23.0,88,0.01,,,0.03,11,weatherlink.com 1.10,2013-03-06 12:01:00,
2013-03-06 07:16:00,39.0,36.0,30.15,ENE,76,13.0,18.0,90,0.02,,,0.04,18,weatherlink.com 1.10,2013-03-06 12:16:00,
2013-03-06 07:31:00,39.2,36.0,30.16,East,90,19.0,26.0,88,0.01,,,0.04,21,weatherlink.com 1.10,2013-03-06 12:31:00,
2013-03-06 07:46:00,39.1,36.0,30.16,ESE,103,5.0,24.0,87,0.01,,,0.04,33,weatherlink.com 1.10,2013-03-06 12:46:00,
2013-03-06 08:01:00,39.9,35.0,30.16,NE,45,5.0,26.0,82,0.01,,,0.04,40,weatherlink.com 1.10,2013-03-06 13:01:00,
2013-03-06 08:16:00,40.3,34.0,30.16,East,84,18.0,30.0,78,0.00,,,0.04,79,weatherlink.com 1.10,2013-03-06 13:16:00,
2013-03-06 08:31:00,40.4,34.0,30.16,SE,125,18.0,26.0,79,0.00,,,0.04,77,weatherlink.com 1.10,2013-03-06 13:31:00,
2013-03-06 08:46:00,39.2,35.0,30.16,ESE,104,10.0,22.0,84,0.00,,,0.04,118,weatherlink.com 1.10,2013-03-06 13:46:00,
2013-03-06 09:01:00,40.0,34.0,30.16,ESE,121,21.0,24.0,78,0.00,,,0.04,107,weatherlink.com 1.10,2013-03-06 14:01:00,
2013-03-06 09:16:00,39.7,34.0,30.17,East,101,17.0,24.0,80,0.00,,,0.04,186,weatherlink.com 1.10,2013-03-06 14:16:00,
2013-03-06 09:31:00,39.7,34.0,30.17,ENE,69,13.0,22.0,79,0.00,,,0.04,155,weatherlink.com 1.10,2013-03-06 14:31:00,
2013-03-06 09:46:00,40.0,33.0,30.18,East,85,14.0,17.0,77,0.00,,,0.04,151,weatherlink.com 1.10,2013-03-06 14:46:00,
2013-03-06 10:01:00,39.9,34.0,30.18,East,90,6.0,22.0,78,0.00,,,0.04,148,weatherlink.com 1.10,2013-03-06 15:01:00,
2013-03-06 10:16:00,39.8,32.0,30.18,East,93,9.0,24.0,73,0.00,,,0.04,109,weatherlink.com 1.10,2013-03-06 15:16:00,
2013-03-06 10:31:00,40.1,31.0,30.17,ENE,76,9.0,30.0,69,0.00,,,0.04,132,weatherlink.com 1.10,2013-03-06 15:31:00,
2013-03-06 10:46:00,40.4,31.0,30.16,ENE,66,7.0,27.0,68,0.00,,,0.04,172,weatherlink.com 1.10,2013-03-06 15:46:00,
2013-03-06 11:01:00,40.4,32.0,30.16,East,94,13.0,25.0,71,0.00,,,0.04,141,weatherlink.com 1.10,2013-03-06 16:01:00,
2013-03-06 11:16:00,40.0,31.0,30.16,ENE,78,11.0,31.0,71,0.00,,,0.04,162,weatherlink.com 1.10,2013-03-06 16:16:00,
2013-03-06 11:32:00,40.8,32.0,30.16,NE,53,14.0,24.0,71,0.00,,,0.04,264,weatherlink.com 1.10,2013-03-06 16:32:00,
2013-03-06 11:47:00,40.6,31.0,30.15,East,82,27.0,31.0,69,0.00,,,0.04,206,weatherlink.com 1.10,2013-03-06 16:47:00,
2013-03-06 12:02:00,40.1,34.0,30.15,East,98,18.0,26.0,78,0.00,,,0.04,179,weatherlink.com 1.10,2013-03-06 17:02:00,
2013-03-06 12:17:00,40.4,34.0,30.15,ESE,107,7.0,22.0,77,0.00,,,0.04,327,weatherlink.com 1.10,2013-03-06 17:17:00,
2013-03-06 12:32:00,38.7,34.0,30.16,NE,44,11.0,30.0,83,0.00,,,0.04,341,weatherlink.com 1.10,2013-03-06 17:32:00,
2013-03-06 12:47:00,39.8,35.0,30.15,East,86,13.0,23.0,83,0.00,,,0.04,483,weatherlink.com 1.10,2013-03-06 17:47:00,
2013-03-06 13:18:00,39.3,34.0,30.15,East,79,9.0,30.0,80,0.01,,,0.05,373,weatherlink.com 1.10,2013-03-06 18:18:00,
2013-03-06 13:32:00,38.0,35.0,30.14,East,83,18.0,24.0,88,0.01,,,0.05,387,weatherlink.com 1.10,2013-03-06 18:32:00,
2013-03-06 13:47:00,38.8,35.0,30.14,SE,134,3.0,25.0,85,0.02,,,0.06,267,weatherlink.com 1.10,2013-03-06 18:47:00,
2013-03-06 14:02:00,38.8,35.0,30.14,ESE,112,7.0,24.0,85,0.01,,,0.06,98,weatherlink.com 1.10,2013-03-06 19:02:00,
2013-03-06 14:17:00,39.5,35.0,30.14,ESE,119,8.0,34.0,83,0.01,,,0.06,139,weatherlink.com 1.10,2013-03-06 19:17:00,
2013-03-06 14:32:00,39.4,34.0,30.14,ENE,59,12.0,31.0,81,0.01,,,0.06,186,weatherlink.com 1.10,2013-03-06 19:32:00,
2013-03-06 14:47:00,39.1,34.0,30.14,ENE,75,8.0,26.0,82,0.00,,,0.06,97,weatherlink.com 1.10,2013-03-06 19:47:00,
2013-03-06 15:02:00,37.9,34.0,30.14,East,96,14.0,24.0,84,0.00,,,0.06,118,weatherlink.com 1.10,2013-03-06 20:02:00,
2013-03-06 15:17:00,37.4,34.0,30.14,ENE,68,5.0,29.0,87,0.01,,,0.07,88,weatherlink.com 1.10,2013-03-06 20:17:00,
2013-03-06 15:32:00,37.8,34.0,30.14,East,79,10.0,26.0,86,0.01,,,0.07,86,weatherlink.com 1.10,2013-03-06 20:32:00,
2013-03-06 15:47:00,38.5,33.0,30.14,ENE,69,16.0,24.0,81,0.01,,,0.07,51,weatherlink.com 1.10,2013-03-06 20:47:00,
2013-03-06 16:02:00,37.9,34.0,30.15,East,79,8.0,21.0,84,0.02,,,0.08,60,weatherlink.com 1.10,2013-03-06 21:02:00,
2013-03-06 16:17:00,36.4,33.0,30.15,ENE,71,5.0,26.0,87,0.02,,,0.09,28,weatherlink.com 1.10,2013-03-06 21:17:00,
2013-03-06 16:32:00,36.7,34.0,30.14,East,99,9.0,23.0,88,0.03,,,0.10,23,weatherlink.com 1.10,2013-03-06 21:32:00,
2013-03-06 16:47:00,37.0,34.0,30.15,ENE,77,11.0,22.0,87,0.03,,,0.10,18,weatherlink.com 1.10,2013-03-06 21:47:00,
2013-03-06 17:02:00,37.4,34.0,30.16,ENE,73,10.0,17.0,86,0.02,,,0.10,9,weatherlink.com 1.10,2013-03-06 22:02:00,
2013-03-06 17:17:00,37.7,33.0,30.16,East,88,8.0,22.0,83,0.01,,,0.10,11,weatherlink.com 1.10,2013-03-06 22:17:00,
2013-03-06 17:32:00,37.0,33.0,30.16,NNE,20,9.0,22.0,85,0.01,,,0.11,5,weatherlink.com 1.10,2013-03-06 22:32:00,
2013-03-06 17:47:00,37.1,33.0,30.16,East,82,8.0,23.0,85,0.01,,,0.11,0,weatherlink.com 1.10,2013-03-06 22:47:00,
2013-03-06 18:02:00,37.1,33.0,30.16,NE,45,6.0,19.0,86,0.01,,,0.11,0,weatherlink.com 1.10,2013-03-06 23:02:00,
2013-03-06 18:17:00,37.2,33.0,30.15,East,80,27.0,27.0,85,0.01,,,0.11,0,weatherlink.com 1.10,2013-03-06 23:17:00,
2013-03-06 18:32:00,36.3,33.0,30.15,ENE,69,5.0,24.0,87,0.01,,,0.12,0,weatherlink.com 1.10,2013-03-06 23:32:00,
2013-03-06 18:47:00,35.5,33.0,30.15,ESE,109,11.0,25.0,89,0.03,,,0.14,0,weatherlink.com 1.10,2013-03-06 23:47:00,
2013-03-06 19:02:00,35.8,33.0,30.16,East,89,10.0,22.0,90,0.03,,,0.14,0,weatherlink.com 1.10,2013-03-07 00:02:00,
2013-03-06 19:17:00,36.4,33.0,30.16,ENE,63,16.0,22.0,88,0.04,,,0.15,0,weatherlink.com 1.10,2013-03-07 00:17:00,
2013-03-06 19:32:00,36.3,33.0,30.17,East,79,18.0,23.0,88,0.03,,,0.15,0,weatherlink.com 1.10,2013-03-07 00:32:00,
2013-03-06 19:47:00,36.3,33.0,30.16,ENE,63,13.0,24.0,88,0.02,,,0.16,0,weatherlink.com 1.10,2013-03-07 00:47:00,
2013-03-06 20:02:00,36.6,33.0,30.16,ENE,73,8.0,19.0,86,0.03,,,0.17,0,weatherlink.com 1.10,2013-03-07 01:02:00,
2013-03-06 20:17:00,37.2,33.0,30.16,East,88,7.0,19.0,83,0.03,,,0.18,0,weatherlink.com 1.10,2013-03-07 01:17:00,
2013-03-06 20:32:00,37.3,33.0,30.15,East,90,10.0,23.0,83,0.03,,,0.18,0,weatherlink.com 1.10,2013-03-07 01:32:00,
2013-03-06 20:47:00,37.8,32.0,30.15,NE,53,17.0,26.0,79,0.02,,,0.18,0,weatherlink.com 1.10,2013-03-07 01:47:00,
2013-03-06 21:02:00,37.3,31.0,30.15,ENE,67,11.0,32.0,78,0.01,,,0.18,0,weatherlink.com 1.10,2013-03-07 02:02:00,
2013-03-06 21:17:00,37.4,31.0,30.14,ENE,60,21.0,22.0,79,0.00,,,0.18,0,weatherlink.com 1.10,2013-03-07 02:17:00,
2013-03-06 21:32:00,37.6,31.0,30.14,East,90,16.0,30.0,78,0.00,,,0.18,0,weatherlink.com 1.10,2013-03-07 02:32:00,
2013-03-06 21:47:00,37.3,31.0,30.14,ENE,65,10.0,23.0,79,0.00,,,0.18,0,weatherlink.com 1.10,2013-03-07 02:47:00,
2013-03-06 22:02:00,37.2,32.0,30.14,East,90,7.0,16.0,80,0.00,,,0.18,0,weatherlink.com 1.10,2013-03-07 03:02:00,
2013-03-06 22:17:00,36.3,32.0,30.14,NE,55,5.0,20.0,85,0.01,,,0.19,0,weatherlink.com 1.10,2013-03-07 03:17:00,
2013-03-06 22:32:00,36.7,32.0,30.14,East,96,9.0,22.0,82,0.02,,,0.20,0,weatherlink.com 1.10,2013-03-07 03:32:00,
2013-03-06 22:47:00,35.8,32.0,30.14,NE,51,10.0,18.0,87,0.02,,,0.20,0,weatherlink.com 1.10,2013-03-07 03:47:00,
2013-03-06 23:02:00,36.2,32.0,30.13,NE,40,6.0,16.0,85,0.02,,,0.20,0,weatherlink.com 1.10,2013-03-07 04:02:00,
2013-03-06 23:17:00,36.7,32.0,30.14,ENE,67,12.0,17.0,82,0.01,,,0.20,0,weatherlink.com 1.10,2013-03-07 04:17:00,
2013-03-06 23:32:00,36.9,31.0,30.14,ENE,65,14.0,22.0,79,0.01,,,0.21,0,weatherlink.com 1.10,2013-03-07 04:32:00,
2013-03-06 23:47:00,36.9,31.0,30.14,ENE,60,12.0,22.0,78,0.01,,,0.21,0,weatherlink.com 1.10,2013-03-07 04:47:00,